Time;durP1;ratioP1;P1;durP2;ratioP2;P2;SDS_P1;SDS_P2;PMS_P1;PMS_P2;Temp;Humidity;BMP_temperature;BMP_pressure;BME280_temperature;BME280_humidity;BME280_pressure;Samples;Min_cycle;Max_cycle;Signal;HPM_P1;HPM_P2
2020/12/30 14:45:42;;;;;;;76.33;37.40;;;;;;;2.89;81.04;99063.82;119937;1154;22984;-78
2020/12/30 14:48:12;;;;;;;76.33;36.57;;;;;;;2.87;80.79;99071.00;119982;1154;27435;-78
2020/12/30 14:50:40;;;;;;;80.77;36.37;;;;;;;2.85;80.87;99065.95;119946;1154;22974;-77
2020/12/30 14:53:09;;;;;;;76.07;38.00;;;;;;;2.86;81.04;99067.48;119979;1154;22945;-79
2020/12/30 14:55:39;;;;;;;74.00;35.93;;;;;;;2.84;80.64;99072.68;119949;1154;27463;-78
2020/12/30 14:58:08;;;;;;;70.12;34.05;;;;;;;2.84;80.68;99066.39;119940;1154;22971;-78
2020/12/30 15:00:38;;;;;;;71.70;34.10;;;;;;;2.85;80.37;99067.94;119967;1154;24587;-77
2020/12/30 15:03:07;;;;;;;71.93;34.27;;;;;;;2.83;80.46;99075.89;119972;1154;22970;-75
2020/12/30 15:05:36;;;;;;;71.43;35.03;;;;;;;2.81;80.22;99081.09;119931;1154;22976;-76
2020/12/30 15:08:05;;;;;;;70.07;34.80;;;;;;;2.78;80.04;99084.75;119933;1154;22977;-76
2020/12/30 15:10:34;;;;;;;69.55;34.55;;;;;;;2.76;80.35;99076.94;120057;1154;23454;-75
2020/12/30 15:13:03;;;;;;;64.47;32.03;;;;;;;2.70;79.71;99083.50;119880;1154;23099;-75
2020/12/30 15:15:32;;;;;;;181.80;85.90;;;;;;;2.64;80.19;99079.80;119784;1154;22951;-75
2020/12/30 15:18:01;;;;;;;322.60;163.35;;;;;;;2.60;80.03;99088.22;119892;1154;25990;-75
2020/12/30 15:20:31;;;;;;;223.30;108.57;;;;;;;2.55;80.44;99077.00;119845;1154;23085;-76
2020/12/30 15:23:00;;;;;;;163.27;74.47;;;;;;;2.53;79.99;99080.22;119939;1154;22967;-77
2020/12/30 15:25:28;;;;;;;155.93;73.13;;;;;;;2.51;80.29;99079.90;120055;1154;22970;-76
2020/12/30 15:27:57;;;;;;;131.47;64.40;;;;;;;2.49;79.63;99082.34;119928;1154;23006;-76
2020/12/30 15:30:26;;;;;;;111.30;56.20;;;;;;;2.46;79.24;99086.02;119830;1154;22986;-76
2020/12/30 15:32:55;;;;;;;103.05;51.45;;;;;;;2.42;79.43;99079.88;119932;1153;22951;-76
2020/12/30 15:35:24;;;;;;;96.97;46.87;;;;;;;2.40;79.85;99090.58;120153;1154;22929;-75
2020/12/30 15:37:53;;;;;;;93.03;44.27;;;;;;;2.34;79.11;99100.62;119921;1154;22958;-76
2020/12/30 15:40:23;;;;;;;117.57;55.53;;;;;;;2.29;79.25;99095.71;119818;1154;23347;-76
2020/12/30 15:42:52;;;;;;;186.77;83.83;;;;;;;2.25;79.22;99109.63;119910;1154;22967;-76
2020/12/30 15:45:22;;;;;;;217.15;96.45;;;;;;;2.22;79.27;99106.98;119908;1154;25996;-77
2020/12/30 15:47:51;;;;;;;154.93;73.43;;;;;;;2.18;79.42;99106.34;119827;1154;27249;-77
2020/12/30 15:50:20;;;;;;;186.03;81.23;;;;;;;2.14;78.92;99105.70;119849;1154;27743;-76
2020/12/30 15:52:49;;;;;;;184.10;82.53;;;;;;;2.09;79.73;99100.80;119847;1154;22988;-77
2020/12/30 15:55:19;;;;;;;156.77;73.40;;;;;;;2.04;79.01;99104.12;119902;1154;22945;-77
2020/12/30 15:57:48;;;;;;;160.52;76.33;;;;;;;1.98;78.78;99098.44;119844;1154;22945;-77
2020/12/30 16:00:17;;;;;;;151.50;74.50;;;;;;;1.94;78.98;99105.28;119943;1154;23783;-78
2020/12/30 16:02:46;;;;;;;150.77;68.23;;;;;;;1.88;79.64;99112.58;119847;1154;22976;-77
2020/12/30 16:05:15;;;;;;;137.33;66.27;;;;;;;1.82;79.72;99108.86;119912;1154;25989;-76
2020/12/30 16:07:44;;;;;;;136.03;64.43;;;;;;;1.77;79.61;99112.95;120042;1154;25881;-76
2020/12/30 16:10:13;;;;;;;132.63;64.57;;;;;;;1.75;79.36;99112.62;120068;1154;26530;-76
2020/12/30 16:12:45;;;;;;;132.03;62.40;;;;;;;1.72;79.94;99115.51;119843;1154;27922;-76
2020/12/30 16:15:14;;;;;;;139.73;63.93;;;;;;;1.69;79.37;99111.66;119871;1154;25992;-77
2020/12/30 16:17:44;;;;;;;127.00;61.40;;;;;;;1.67;79.19;99114.09;119925;1154;23084;-78
2020/12/30 16:20:13;;;;;;;122.10;58.85;;;;;;;1.63;79.78;99113.45;119920;1154;23160;-76
2020/12/30 16:22:41;;;;;;;124.43;59.80;;;;;;;1.61;79.63;99124.87;119926;1154;26413;-75
2020/12/30 16:25:10;;;;;;;123.35;60.30;;;;;;;1.60;79.71;99128.86;119973;1154;22937;-76
2020/12/30 16:27:39;;;;;;;122.93;61.33;;;;;;;1.58;79.86;99133.27;119892;1154;22974;-76
2020/12/30 16:30:08;;;;;;;123.20;58.70;;;;;;;1.57;79.63;99134.48;119906;1154;26085;-76
2020/12/30 16:32:38;;;;;;;133.17;63.30;;;;;;;1.56;79.15;99141.97;120015;1154;22974;-76
2020/12/30 16:35:08;;;;;;;168.90;80.47;;;;;;;1.54;79.69;99144.39;120102;1154;23078;-75
2020/12/30 16:37:37;;;;;;;185.30;90.87;;;;;;;1.54;79.73;99141.64;119922;1154;23443;-77
2020/12/30 16:40:09;;;;;;;209.20;110.20;;;;;;;1.52;79.45;99141.31;119978;1154;22957;-76
2020/12/30 16:42:38;;;;;;;233.93;113.07;;;;;;;1.52;79.20;99137.80;119955;1154;23106;-77
2020/12/30 16:45:07;;;;;;;251.97;123.80;;;;;;;1.50;79.49;99140.99;119931;1154;23345;-76
2020/12/30 16:47:36;;;;;;;275.20;134.73;;;;;;;1.47;79.27;99132.84;120061;1154;27292;-77
2020/12/30 16:50:06;;;;;;;260.10;128.47;;;;;;;1.48;79.69;99140.67;119945;1154;23036;-76
2020/12/30 16:52:35;;;;;;;244.17;124.57;;;;;;;1.50;79.62;99148.47;120164;1154;22981;-78
2020/12/30 16:55:05;;;;;;;239.55;115.95;;;;;;;1.49;79.74;99147.70;120128;1156;25995;-76
2020/12/30 16:57:34;;;;;;;213.90;106.33;;;;;;;1.48;79.38;99148.92;120637;1154;27399;-76
2020/12/30 17:00:04;;;;;;;185.13;95.07;;;;;;;1.48;79.15;99156.39;120506;1152;22951;-74
2020/12/30 17:02:33;;;;;;;181.05;95.87;;;;;;;1.46;79.31;99147.82;123494;1154;22806;-77
2020/12/30 17:05:02;;;;;;;171.97;90.07;;;;;;;1.46;79.64;99150.57;123408;1153;22754;-77
2020/12/30 17:07:35;;;;;;;169.60;89.03;;;;;;;1.45;79.23;99149.80;123539;1154;22741;-75
2020/12/30 17:10:05;;;;;;;166.80;87.37;;;;;;;1.46;79.69;99156.07;123429;1154;23518;-77
2020/12/30 17:12:34;;;;;;;169.13;90.50;;;;;;;1.47;79.73;99154.84;123448;1154;22782;-74
2020/12/30 17:15:04;;;;;;;214.83;107.87;;;;;;;1.48;78.81;99161.90;123433;1154;22809;-75
2020/12/30 17:17:34;;;;;;;209.67;111.47;;;;;;;1.46;78.85;99169.83;123470;1154;22896;-75
2020/12/30 17:20:03;;;;;;;226.50;115.60;;;;;;;1.45;79.22;99165.52;123449;1152;23574;-76
2020/12/30 17:22:33;;;;;;;293.55;142.22;;;;;;;1.41;78.50;99173.13;123416;1152;23680;-75
2020/12/30 17:25:03;;;;;;;227.07;114.90;;;;;;;1.31;79.37;99183.27;123442;1153;23715;-74
2020/12/30 17:27:32;;;;;;;208.70;103.75;;;;;;;1.25;79.46;99179.53;123397;1154;22862;-74
2020/12/30 17:30:02;;;;;;;220.77;108.57;;;;;;;1.21;79.31;99181.63;123429;1153;22750;-75
2020/12/30 17:32:32;;;;;;;220.45;111.50;;;;;;;1.22;78.89;99190.66;123416;1154;22766;-75
2020/12/30 17:35:01;;;;;;;;;;;;;;;1.23;78.75;99192.18;123522;1153;22741;-74
2020/12/30 17:37:33;;;;;;;228.67;108.63;;;;;;;1.24;79.41;99196.48;121937;1154;21603;-75
2020/12/30 17:40:04;;;;;;;237.33;105.33;;;;;;;1.23;78.60;99197.67;119972;1154;27727;-75
2020/12/30 17:42:33;;;;;;;219.72;103.75;;;;;;;1.20;78.94;99204.82;119887;1154;22947;-76
2020/12/30 17:45:03;;;;;;;221.77;100.90;;;;;;;1.18;78.69;99209.24;119877;1154;27454;-74
2020/12/30 17:47:33;;;;;;;213.10;100.07;;;;;;;1.17;78.96;99213.19;119877;1154;22938;-76
2020/12/30 17:50:03;;;;;;;217.97;95.12;;;;;;;1.14;78.36;99211.34;119996;1154;24766;-76
2020/12/30 17:52:32;;;;;;;193.30;90.93;;;;;;;1.09;78.62;99212.65;119935;1154;22948;-76
2020/12/30 17:55:03;;;;;;;203.20;94.53;;;;;;;1.06;78.90;99212.73;119949;1156;22959;-77
2020/12/30 17:57:32;;;;;;;196.45;89.35;;;;;;;1.03;78.33;99211.66;119916;1154;22984;-77
2020/12/30 18:00:01;;;;;;;183.13;85.37;;;;;;;0.97;78.22;99215.39;119928;1156;25993;-79
2020/12/30 18:02:34;;;;;;;178.67;85.37;;;;;;;0.88;78.19;99216.04;119958;1154;23633;-76
2020/12/30 18:05:04;;;;;;;184.53;80.57;;;;;;;0.82;78.16;99223.29;120082;1154;23062;-78
2020/12/30 18:07:34;;;;;;;189.90;84.05;;;;;;;0.78;78.42;99219.88;120249;1154;22970;-77
2020/12/30 18:10:04;;;;;;;168.37;80.67;;;;;;;0.73;78.06;99212.95;120186;1154;22971;-78
2020/12/30 18:12:37;;;;;;;151.10;74.77;;;;;;;0.68;77.93;99218.97;120008;1154;22955;-77
2020/12/30 18:15:07;;;;;;;170.40;80.33;;;;;;;0.60;78.45;99228.63;119964;1154;23007;-76
2020/12/30 18:17:36;;;;;;;177.50;85.63;;;;;;;0.53;78.10;99242.58;120077;1154;22889;-76
2020/12/30 18:20:07;;;;;;;168.13;82.70;;;;;;;0.50;79.08;99235.19;120056;1154;22983;-78
2020/12/30 18:22:36;;;;;;;170.05;82.88;;;;;;;0.48;78.54;99236.83;120059;1156;27010;-78
2020/12/30 18:25:06;;;;;;;174.70;86.80;;;;;;;0.44;78.25;99230.67;120257;1154;22975;-76
2020/12/30 18:27:36;;;;;;;183.57;88.30;;;;;;;0.40;78.32;99224.51;120022;1157;24105;-78
2020/12/30 18:30:05;;;;;;;188.70;94.13;;;;;;;0.36;78.65;99232.84;120157;1154;22970;-77
2020/12/30 18:32:34;;;;;;;180.50;92.73;;;;;;;0.30;78.59;99231.84;120076;1156;22978;-77
2020/12/30 18:35:03;;;;;;;184.07;96.60;;;;;;;0.24;78.17;99230.84;120161;1154;23004;-77
2020/12/30 18:37:36;;;;;;;179.07;96.87;;;;;;;0.18;78.29;99240.03;120078;1157;22936;-77
2020/12/30 18:40:06;;;;;;;189.17;94.50;;;;;;;0.07;78.46;99231.30;120165;1156;23044;-77
2020/12/30 18:42:36;;;;;;;208.95;99.47;;;;;;;0.02;78.82;99240.85;120092;1154;22944;-78
2020/12/30 18:45:07;;;;;;;200.60;99.85;;;;;;;-0.06;79.26;99242.22;120083;1154;22940;-77
2020/12/30 18:47:36;;;;;;;206.90;108.00;;;;;;;-0.13;78.71;99242.41;120287;1154;24060;-77
2020/12/30 18:50:06;;;;;;;205.93;107.73;;;;;;;-0.20;78.67;99237.09;120228;1154;22961;-78
2020/12/30 18:52:39;;;;;;;196.00;96.50;;;;;;;-0.28;79.53;99235.73;120359;1154;23150;-78
2020/12/30 18:55:10;;;;;;;182.33;90.03;;;;;;;-0.37;78.93;99244.57;120399;1154;24573;-79
2020/12/30 18:57:40;;;;;;;177.60;89.23;;;;;;;-0.41;79.41;99249.38;120247;1154;23183;-77
2020/12/30 19:00:10;;;;;;;186.52;91.22;;;;;;;-0.40;79.42;99244.66;120242;1156;22937;-78
2020/12/30 19:02:39;;;;;;;183.97;92.87;;;;;;;-0.37;79.45;99246.53;120238;1154;22976;-78
2020/12/30 19:05:09;;;;;;;180.60;87.43;;;;;;;-0.35;79.31;99249.65;120185;1154;23333;-78
2020/12/30 19:07:38;;;;;;;192.62;94.52;;;;;;;-0.33;79.41;99247.25;120224;1154;23815;-76
2020/12/30 19:10:08;;;;;;;193.65;94.40;;;;;;;-0.32;79.06;99246.80;120414;1154;22953;-78
2020/12/30 19:12:37;;;;;;;177.50;91.45;;;;;;;-0.34;78.71;99251.17;120819;1154;22949;-78
2020/12/30 19:15:07;;;;;;;183.83;95.27;;;;;;;-0.31;78.72;99247.59;120507;1154;22929;-78
2020/12/30 19:17:36;;;;;;;177.75;90.35;;;;;;;-0.32;78.70;99246.80;120268;1154;22957;-78
2020/12/30 19:20:06;;;;;;;192.13;95.30;;;;;;;-0.26;79.44;99258.02;120291;1154;22961;-78
2020/12/30 19:22:36;;;;;;;205.75;103.05;;;;;;;-0.23;78.60;99259.92;120275;1154;23048;-78
2020/12/30 19:25:06;;;;;;;239.63;116.62;;;;;;;-0.21;78.85;99261.00;120750;1154;23585;-78
2020/12/30 19:27:35;;;;;;;231.45;115.25;;;;;;;-0.20;78.97;99264.53;120169;1154;24624;-78
2020/12/30 19:30:05;;;;;;;230.90;114.63;;;;;;;-0.20;79.37;99267.27;120237;1154;22908;-78
2020/12/30 19:32:36;;;;;;;234.50;110.22;;;;;;;-0.20;78.87;99268.05;120130;1154;23032;-78
2020/12/30 19:35:07;;;;;;;245.70;113.30;;;;;;;-0.29;78.55;99270.61;120794;1154;22970;-79
2020/12/30 19:37:35;;;;;;;;;;;;;;;-0.31;78.61;99272.27;120488;1154;22898;-79
2020/12/30 19:40:06;;;;;;;301.60;140.43;;;;;;;-0.37;78.84;99265.73;120278;1154;21599;-78
2020/12/30 19:42:35;;;;;;;292.50;135.03;;;;;;;-0.42;78.74;99267.03;120367;1154;22922;-79
2020/12/30 19:45:05;;;;;;;296.63;139.20;;;;;;;-0.45;78.53;99264.36;120990;1154;23423;-77
2020/12/30 19:47:35;;;;;;;308.57;134.50;;;;;;;-0.52;79.35;99275.52;120249;1154;22912;-78
2020/12/30 19:50:06;;;;;;;322.40;140.33;;;;;;;-0.60;79.57;99274.14;120381;1154;23060;-80
2020/12/30 19:52:35;;;;;;;335.50;145.63;;;;;;;-0.63;78.63;99274.98;120362;1154;24669;-78
2020/12/30 19:55:06;;;;;;;307.30;138.87;;;;;;;-0.64;79.39;99276.94;120264;1154;27483;-78
2020/12/30 19:57:37;;;;;;;296.07;133.97;;;;;;;-0.65;79.02;99282.86;120813;1154;22939;-79
2020/12/30 20:00:07;;;;;;;276.20;123.23;;;;;;;-0.62;78.99;99276.54;120896;1153;23387;-78
2020/12/30 20:02:43;;;;;;;265.23;118.35;;;;;;;-0.61;79.55;99278.06;120865;1154;25999;-81
2020/12/30 20:05:13;;;;;;;261.07;116.23;;;;;;;-0.58;79.67;99279.97;120498;1154;22941;-79
2020/12/30 20:07:42;;;;;;;206.60;93.97;;;;;;;-0.59;79.24;99281.16;120289;1154;26379;-79
2020/12/30 20:10:14;;;;;;;203.57;89.97;;;;;;;-0.60;79.34;99299.56;120265;1154;23119;-79
2020/12/30 20:12:44;;;;;;;192.93;90.77;;;;;;;-0.60;79.98;99287.84;120192;1154;27864;-79
2020/12/30 20:15:14;;;;;;;187.30;85.70;;;;;;;-0.57;79.80;99292.46;120350;1154;22981;-77
2020/12/30 20:17:45;;;;;;;176.05;81.00;;;;;;;-0.56;79.00;99297.51;120358;1154;26425;-80
2020/12/30 20:20:14;;;;;;;181.60;84.57;;;;;;;-0.53;79.85;99304.11;121245;1154;23483;-80
2020/12/30 20:22:43;;;;;;;190.30;86.87;;;;;;;-0.53;79.92;99302.15;121124;1154;22963;-79
2020/12/30 20:25:17;;;;;;;188.80;90.97;;;;;;;-0.54;79.35;99300.63;120399;1154;23331;-77
2020/12/30 20:27:50;;;;;;;202.00;92.00;;;;;;;-0.52;79.44;99311.16;120395;1154;26414;-79
2020/12/30 20:30:19;;;;;;;204.57;100.43;;;;;;;-0.51;79.79;99307.98;120194;1154;23595;-77
2020/12/30 20:32:53;;;;;;;211.57;103.00;;;;;;;-0.47;80.05;99307.88;120769;1154;25873;-76
2020/12/30 20:35:23;;;;;;;222.45;106.95;;;;;;;-0.44;80.08;99307.05;120759;1154;23830;-76
2020/12/30 20:37:52;;;;;;;203.00;102.03;;;;;;;-0.42;79.81;99305.42;120816;1154;22963;-77
2020/12/30 20:40:21;;;;;;;205.80;103.23;;;;;;;-0.39;79.73;99306.52;120672;1154;22946;-78
2020/12/30 20:42:51;;;;;;;215.87;103.87;;;;;;;-0.37;79.16;99307.64;120617;1154;22974;-78
2020/12/30 20:45:20;;;;;;;193.93;98.60;;;;;;;-0.35;79.65;99316.21;120733;1154;23693;-78
2020/12/30 20:47:50;;;;;;;178.90;88.80;;;;;;;-0.33;78.77;99307.58;120527;1154;22976;-76
2020/12/30 20:50:20;;;;;;;196.00;92.25;;;;;;;-0.37;78.74;99310.38;120673;1154;22939;-76
2020/12/30 20:52:52;;;;;;;173.80;84.05;;;;;;;-0.45;78.74;99310.97;120618;1154;22953;-75
2020/12/30 20:55:22;;;;;;;159.63;72.07;;;;;;;-0.49;79.59;99311.06;120679;1154;23523;-75
2020/12/30 20:57:51;;;;;;;158.50;72.90;;;;;;;-0.47;79.56;99313.37;120611;1154;22960;-75
2020/12/30 21:00:20;;;;;;;147.40;68.43;;;;;;;-0.45;79.16;99316.45;120659;1154;22956;-76
2020/12/30 21:02:50;;;;;;;147.23;68.00;;;;;;;-0.45;79.50;99311.75;120580;1154;22946;-75
2020/12/30 21:05:20;;;;;;;147.50;66.90;;;;;;;-0.44;79.82;99310.56;120571;1152;23507;-76
2020/12/30 21:07:50;;;;;;;143.17;65.10;;;;;;;-0.40;80.00;99318.70;120309;1154;26121;-77
2020/12/30 21:10:20;;;;;;;146.00;66.10;;;;;;;-0.36;79.55;99320.16;120389;1154;23034;-77
2020/12/30 21:12:49;;;;;;;163.77;69.70;;;;;;;-0.34;79.47;99315.02;120214;1154;22967;-77
2020/12/30 21:15:19;;;;;;;146.27;70.07;;;;;;;-0.31;78.97;99316.14;120183;1154;22936;-77
2020/12/30 21:17:49;;;;;;;158.73;68.47;;;;;;;-0.28;78.88;99320.76;120341;1154;22921;-76
2020/12/30 21:20:18;;;;;;;166.65;76.62;;;;;;;-0.27;78.66;99322.31;120350;1154;22939;-78
2020/12/30 21:22:49;;;;;;;163.10;73.40;;;;;;;-0.29;78.70;99325.47;120407;1154;23027;-76
2020/12/30 21:25:17;;;;;;;;;;;;;;;-0.31;79.22;99329.86;120179;1154;22971;-77
2020/12/30 21:27:49;;;;;;;164.57;71.90;;;;;;;-0.33;79.45;99329.52;120238;1154;21619;-77
2020/12/30 21:30:20;;;;;;;159.50;72.23;;;;;;;-0.34;79.02;99327.95;120399;1154;23873;-77
2020/12/30 21:32:50;;;;;;;162.47;71.73;;;;;;;-0.33;79.69;99324.78;120233;1154;22975;-77
2020/12/30 21:35:21;;;;;;;184.37;84.33;;;;;;;-0.33;79.56;99327.52;120262;1154;23100;-76
2020/12/30 21:37:51;;;;;;;261.32;121.00;;;;;;;-0.34;78.77;99331.48;120344;1154;23105;-76
2020/12/30 21:40:20;;;;;;;293.57;137.20;;;;;;;-0.35;79.65;99342.88;120247;1154;23029;-77
2020/12/30 21:42:50;;;;;;;304.73;134.73;;;;;;;-0.36;78.87;99344.06;120265;1154;23539;-77
2020/12/30 21:45:19;;;;;;;263.90;121.10;;;;;;;-0.35;79.32;99348.37;120388;1153;25999;-77
2020/12/30 21:47:49;;;;;;;273.27;127.60;;;;;;;-0.36;79.17;99341.33;120231;1154;22952;-76
2020/12/30 21:50:20;;;;;;;314.25;146.15;;;;;;;-0.38;78.97;99354.69;120025;1154;22939;-77
2020/12/30 21:52:50;;;;;;;324.32;156.12;;;;;;;-0.42;79.38;99349.30;120122;1154;22958;-77
2020/12/30 21:55:20;;;;;;;306.20;149.55;;;;;;;-0.44;79.38;99350.91;120196;1154;22889;-78
2020/12/30 21:57:50;;;;;;;298.65;145.47;;;;;;;-0.48;78.66;99344.74;120133;1154;23910;-77
2020/12/30 22:00:19;;;;;;;278.02;133.37;;;;;;;-0.52;78.59;99350.31;120091;1154;22946;-77
2020/12/30 22:02:49;;;;;;;267.45;116.20;;;;;;;-0.54;79.55;99355.45;120236;1154;23605;-77
2020/12/30 22:05:18;;;;;;;222.43;105.33;;;;;;;-0.57;79.64;99353.55;120188;1156;22919;-77
2020/12/30 22:07:49;;;;;;;288.50;131.43;;;;;;;-0.63;79.24;99365.44;120081;1154;23922;-76
2020/12/30 22:10:21;;;;;;;250.50;116.07;;;;;;;-0.66;79.71;99358.83;120097;1154;23106;-77
2020/12/30 22:12:50;;;;;;;272.60;123.70;;;;;;;-0.65;79.58;99359.61;120267;1154;22957;-77
2020/12/30 22:15:19;;;;;;;264.70;124.40;;;;;;;-0.65;79.45;99365.87;120082;1157;23270;-76
2020/12/30 22:17:51;;;;;;;281.83;127.00;;;;;;;-0.66;79.28;99364.30;119943;1154;25586;-77
2020/12/30 22:20:20;;;;;;;256.43;122.07;;;;;;;-0.67;78.81;99368.27;120453;1154;22815;-76
2020/12/30 22:22:50;;;;;;;218.80;105.13;;;;;;;-0.72;79.19;99373.48;121175;1154;22942;-76
2020/12/30 22:25:20;;;;;;;229.35;101.67;;;;;;;-0.77;78.63;99372.00;121447;1154;22952;-77
2020/12/30 22:27:49;;;;;;;209.05;96.90;;;;;;;-0.84;79.36;99372.92;121735;1154;23012;-77
2020/12/30 22:30:19;;;;;;;184.60;84.70;;;;;;;-0.92;78.90;99382.48;120266;1154;23059;-75
2020/12/30 22:32:48;;;;;;;187.50;88.20;;;;;;;-0.97;79.22;99377.48;120176;1154;22956;-74
2020/12/30 22:35:18;;;;;;;165.73;78.30;;;;;;;-1.05;78.89;99378.83;120186;1154;22967;-78
2020/12/30 22:37:47;;;;;;;174.33;79.03;;;;;;;-1.05;79.14;99386.27;120442;1152;22952;-79
2020/12/30 22:40:16;;;;;;;166.87;77.50;;;;;;;-1.07;78.77;99381.22;120109;1154;22942;-77
2020/12/30 22:42:45;;;;;;;171.53;76.97;;;;;;;-1.07;79.66;99386.70;120341;1154;22922;-76
2020/12/30 22:45:14;;;;;;;159.87;71.47;;;;;;;-1.07;79.41;99388.66;120246;1154;22945;-77
2020/12/30 22:47:43;;;;;;;150.65;69.60;;;;;;;-1.11;78.65;99382.47;120339;1154;24355;-77
2020/12/30 22:50:13;;;;;;;154.10;67.65;;;;;;;-1.13;79.25;99387.60;120466;1154;22937;-78
2020/12/30 22:52:42;;;;;;;142.23;64.13;;;;;;;-1.16;79.20;99397.42;120562;1153;25957;-78
2020/12/30 22:55:11;;;;;;;143.13;64.00;;;;;;;-1.19;78.48;99398.28;120382;1154;22981;-78
2020/12/30 22:57:40;;;;;;;132.90;60.07;;;;;;;-1.22;78.98;99390.89;120289;1154;22974;-78
2020/12/30 23:00:09;;;;;;;135.63;60.10;;;;;;;-1.21;79.46;99397.15;120237;1154;23036;-77
2020/12/30 23:02:39;;;;;;;119.65;57.85;;;;;;;-1.19;79.11;99392.02;120288;1154;26655;-78
2020/12/30 23:05:08;;;;;;;108.17;51.40;;;;;;;-1.19;79.53;99390.06;120322;1154;22956;-77
2020/12/30 23:07:37;;;;;;;107.03;51.47;;;;;;;-1.19;80.00;99389.28;120172;1157;22995;-79
2020/12/30 23:10:08;;;;;;;106.83;50.33;;;;;;;-1.18;79.83;99383.37;120894;1154;23007;-77
2020/12/30 23:12:37;;;;;;;106.50;47.40;;;;;;;-1.15;80.15;99387.25;120324;1154;22900;-77
2020/12/30 23:15:07;;;;;;;104.47;50.80;;;;;;;-1.14;79.72;99386.07;120478;1154;24865;-77
2020/12/30 23:17:37;;;;;;;105.75;47.90;;;;;;;-1.15;80.17;99385.29;120124;1154;22942;-76
2020/12/30 23:20:16;;;;;;;106.22;49.15;;;;;;;-1.15;79.20;99384.51;120007;1154;23110;-77
2020/12/30 23:22:46;;;;;;;105.55;47.40;;;;;;;-1.17;79.89;99392.38;120192;1154;22945;-75
2020/12/30 23:25:15;;;;;;;106.63;47.40;;;;;;;-1.21;79.11;99397.92;119998;1154;28453;-77
2020/12/30 23:27:45;;;;;;;129.67;58.60;;;;;;;-1.29;79.55;99395.73;119968;1154;22945;-76
2020/12/30 23:30:14;;;;;;;147.17;62.87;;;;;;;-1.37;79.74;99395.11;120096;1154;23408;-77
2020/12/30 23:32:43;;;;;;;132.53;58.80;;;;;;;-1.35;80.26;99394.68;119982;1154;22974;-76
2020/12/30 23:35:12;;;;;;;134.27;59.63;;;;;;;-1.33;79.84;99397.77;120176;1154;22912;-76
2020/12/30 23:37:41;;;;;;;140.30;62.27;;;;;;;-1.29;80.31;99398.48;120034;1154;22939;-76
2020/12/30 23:40:10;;;;;;;152.13;63.70;;;;;;;-1.31;79.42;99396.16;120315;1154;23655;-75
2020/12/30 23:42:41;;;;;;;153.53;66.30;;;;;;;-1.35;79.46;99395.45;120068;1154;23328;-76
2020/12/30 23:45:10;;;;;;;154.80;64.20;;;;;;;-1.37;79.10;99389.63;120272;1154;23656;-76
2020/12/30 23:47:39;;;;;;;155.27;65.97;;;;;;;-1.36;79.27;99396.64;120067;1154;22973;-77
2020/12/30 23:50:08;;;;;;;167.33;65.70;;;;;;;-1.34;79.55;99388.00;120039;1154;22946;-75
2020/12/30 23:52:37;;;;;;;166.13;70.27;;;;;;;-1.31;80.12;99398.91;120058;1154;22966;-76
2020/12/30 23:55:06;;;;;;;174.10;69.07;;;;;;;-1.33;79.84;99395.81;120127;1154;22953;-76
2020/12/30 23:57:36;;;;;;;161.57;65.73;;;;;;;-1.37;79.37;99395.11;120150;1154;22970;-78
